Wetterdaten: aktuell Montag, 19.11.2018 23:05
Datum Zeit Temp. A. Feuchte A. Luftdruck Regen Wind Richtung Richtung Windben
19.11.2018 23:05 0,4 C 90 % 1018,0 hPa 0,0 l/m 0,0 km/h S-SO 147 0,0 km/h
19.11.2018 22:59 0,5 C 90 % 1018,0 hPa 0,0 l/m 0,1 km/h O-NO 71 3,2 km/h
19.11.2018 22:55 0,5 C 90 % 1018,1 hPa 0,0 l/m 0,0 km/h NO 56 0,0 km/h
19.11.2018 22:54 0,5 C 90 % 1018,1 hPa 0,0 l/m 0,1 km/h NO 56 3,2 km/h
19.11.2018 22:50 0,5 C 90 % 1018,0 hPa 0,0 l/m 0,0 km/h N-NO 17 0,0 km/h
19.11.2018 22:45 0,5 C 90 % 1018,2 hPa 0,0 l/m 0,0 km/h O-NO 78 0,0 km/h
19.11.2018 22:39 0,5 C 90 % 1018,1 hPa 0,0 l/m 0,2 km/h N 359 9,7 km/h
19.11.2018 22:35 0,5 C 90 % 1018,0 hPa 0,0 l/m 0,0 km/h NO 38 0,0 km/h
19.11.2018 22:30 0,5 C 90 % 1017,9 hPa 0,0 l/m 0,0 km/h N-NO 22 0,0 km/h
19.11.2018 22:29 0,4 C 90 % 1017,9 hPa 0,0 l/m 0,0 km/h N-NO 29 0,0 km/h
19.11.2018 22:25 0,4 C 90 % 1018,1 hPa 0,0 l/m 0,0 km/h SO 142 0,0 km/h
19.11.2018 22:20 0,4 C 90 % 1018,2 hPa 0,0 l/m 0,0 km/h O 84 0,0 km/h
19.11.2018 22:15 0,4 C 90 % 1018,3 hPa 0,0 l/m 0,0 km/h N 354 0,0 km/h
19.11.2018 22:10 0,4 C 90 % 1018,4 hPa 0,0 l/m 0,0 km/h N-NO 31 0,0 km/h
19.11.2018 22:09 0,4 C 90 % 1018,4 hPa 0,0 l/m 0,0 km/h N-NO 24 0,0 km/h
19.11.2018 22:04 0,4 C 90 % 1018,4 hPa 0,0 l/m 0,0 km/h SW 229 0,0 km/h
19.11.2018 22:00 0,4 C 90 % 1018,5 hPa 0,0 l/m 0,0 km/h SW 217 0,0 km/h
19.11.2018 21:55 0,4 C 90 % 1018,6 hPa 0,0 l/m 0,0 km/h S-SW 192 0,0 km/h
19.11.2018 21:54 0,4 C 90 % 1018,6 hPa 0,0 l/m 0,0 km/h S-SW 192 0,0 km/h
19.11.2018 21:49 0,4 C 90 % 1018,6 hPa 0,0 l/m 0,0 km/h S-SW 195 0,0 km/h
19.11.2018 21:45 0,4 C 90 % 1018,6 hPa 0,0 l/m 0,0 km/h S-SW 207 0,0 km/h
19.11.2018 21:40 0,5 C 90 % 1018,6 hPa 0,0 l/m 0,0 km/h S-SW 209 0,0 km/h
19.11.2018 21:35 0,5 C 90 % 1018,5 hPa 0,0 l/m 0,0 km/h S-SW 201 0,0 km/h
19.11.2018 21:34 0,5 C 90 % 1018,5 hPa 0,0 l/m 0,0 km/h S-SW 201 0,0 km/h
19.11.2018 21:30 0,5 C 90 % 1018,6 hPa 0,0 l/m 0,0 km/h S 183 0,0 km/h
19.11.2018 21:29 0,5 C 90 % 1018,6 hPa 0,0 l/m 0,0 km/h S-SW 212 0,0 km/h
19.11.2018 21:25 0,5 C 90 % 1018,5 hPa 0,0 l/m 0,0 km/h S-SW 202 0,0 km/h
19.11.2018 21:20 0,5 C 90 % 1018,5 hPa 0,0 l/m 0,0 km/h S-SW 193 0,0 km/h
19.11.2018 21:15 0,5 C 90 % 1018,4 hPa 0,0 l/m 0,0 km/h W-SW 238 0,0 km/h
19.11.2018 21:14 0,5 C 90 % 1018,5 hPa 0,0 l/m 0,0 km/h W-SW 238 0,0 km/h
19.11.2018 21:10 0,5 C 90 % 1018,4 hPa 0,0 l/m 0,0 km/h S-SW 193 0,0 km/h
19.11.2018 21:09 0,5 C 90 % 1018,4 hPa 0,0 l/m 0,0 km/h S-SW 193 0,0 km/h
19.11.2018 21:05 0,5 C 90 % 1018,3 hPa 0,0 l/m 0,0 km/h S 179 0,0 km/h
19.11.2018 21:00 0,4 C 90 % 1018,1 hPa 0,0 l/m 0,1 km/h S-SW 199 4,8 km/h
19.11.2018 20:55 0,5 C 90 % 1018,2 hPa 0,0 l/m 0,0 km/h S-SW 197 0,0 km/h
19.11.2018 20:54 0,5 C 90 % 1018,2 hPa 0,0 l/m 0,0 km/h S-SW 197 0,0 km/h
19.11.2018 20:50 0,5 C 90 % 1018,2 hPa 0,0 l/m 0,0 km/h S-SW 197 0,0 km/h
19.11.2018 20:45 0,5 C 90 % 1018,3 hPa 0,0 l/m 0,0 km/h S-SW 198 0,0 km/h
19.11.2018 20:44 0,5 C 90 % 1018,3 hPa 0,0 l/m 0,0 km/h S-SW 194 0,0 km/h
19.11.2018 20:40 0,5 C 90 % 1018,3 hPa 0,0 l/m 0,0 km/h SW 221 0,0 km/h
19.11.2018 20:35 0,5 C 90 % 1018,2 hPa 0,0 l/m 0,0 km/h SW 214 0,0 km/h
19.11.2018 20:30 0,5 C 90 % 1018,2 hPa 0,0 l/m 0,0 km/h SW 215 0,0 km/h
19.11.2018 20:25 0,5 C 90 % 1018,0 hPa 0,2 l/m 0,0 km/h SW 214 0,0 km/h
19.11.2018 20:20 0,5 C 90 % 1017,9 hPa 0,0 l/m 0,0 km/h SW 235 0,0 km/h
19.11.2018 20:19 0,5 C 90 % 1017,9 hPa 0,0 l/m 0,0 km/h SW 235 0,0 km/h
19.11.2018 20:15 0,5 C 90 % 1017,8 hPa 0,0 l/m 0,0 km/h SW 218 0,0 km/h
19.11.2018 20:14 0,5 C 90 % 1017,8 hPa 0,0 l/m 0,0 km/h SW 218 0,0 km/h
19.11.2018 20:10 0,5 C 90 % 1017,9 hPa 0,0 l/m 0,0 km/h S-SW 194 0,0 km/h
19.11.2018 20:09 0,5 C 90 % 1017,9 hPa 0,0 l/m 0,0 km/h S-SW 194 0,0 km/h
19.11.2018 20:05 0,5 C 90 % 1017,8 hPa 0,0 l/m 0,0 km/h SW 227 0,0 km/h
19.11.2018 20:00 0,6 C 90 % 1017,6 hPa 0,0 l/m 0,0 km/h S-SW 207 0,0 km/h
19.11.2018 19:55 0,5 C 90 % 1017,6 hPa 0,0 l/m 0,0 km/h W-SW 238 0,0 km/h
19.11.2018 19:54 0,5 C 90 % 1017,6 hPa 0,0 l/m 0,0 km/h W-SW 238 0,0 km/h
19.11.2018 19:50 0,6 C 90 % 1017,6 hPa 0,0 l/m 0,0 km/h S-SW 209 0,0 km/h
19.11.2018 19:44 0,6 C 90 % 1017,6 hPa 0,0 l/m 0,0 km/h S-SW 211 0,0 km/h
19.11.2018 19:40 0,6 C 90 % 1017,7 hPa 0,0 l/m 0,0 km/h SW 216 0,0 km/h
19.11.2018 19:35 0,6 C 90 % 1017,6 hPa 0,0 l/m 0,0 km/h S-SW 210 0,0 km/h
19.11.2018 19:34 0,6 C 90 % 1017,6 hPa 0,0 l/m 0,0 km/h S-SW 210 0,0 km/h
19.11.2018 19:30 0,6 C 90 % 1017,4 hPa 0,0 l/m 0,0 km/h S-SW 210 0,0 km/h
19.11.2018 19:25 0,6 C 90 % 1017,4 hPa 0,0 l/m 0,0 km/h S-SW 210 0,0 km/h
19.11.2018 19:20 0,6 C 90 % 1017,4 hPa 0,0 l/m 0,0 km/h S-SW 210 0,0 km/h
19.11.2018 19:15 0,6 C 90 % 1017,4 hPa 0,0 l/m 0,0 km/h S-SW 210 0,0 km/h
19.11.2018 19:10 0,6 C 90 % 1017,4 hPa 0,0 l/m 0,0 km/h S-SW 194 0,0 km/h
19.11.2018 19:05 0,6 C 90 % 1017,4 hPa 0,0 l/m 0,0 km/h S-SW 194 0,0 km/h
19.11.2018 19:00 0,6 C 90 % 1017,4 hPa 0,0 l/m 0,0 km/h SW 231 0,0 km/h
19.11.2018 18:59 0,6 C 90 % 1017,4 hPa 0,0 l/m 0,0 km/h SW 231 0,0 km/h
19.11.2018 18:55 0,6 C 90 % 1017,5 hPa 0,0 l/m 0,0 km/h W-NW 284 0,0 km/h
19.11.2018 18:50 0,6 C 90 % 1017,5 hPa 0,0 l/m 0,0 km/h W-NW 285 0,0 km/h
19.11.2018 18:45 0,6 C 90 % 1017,4 hPa 0,0 l/m 0,0 km/h NW 312 0,0 km/h
19.11.2018 18:40 0,6 C 90 % 1017,4 hPa 0,0 l/m 0,0 km/h NW 314 0,0 km/h
19.11.2018 18:35 0,6 C 90 % 1017,4 hPa 0,0 l/m 0,0 km/h W-SW 256 0,0 km/h
19.11.2018 18:30 0,6 C 90 % 1017,4 hPa 0,0 l/m 0,0 km/h W-NW 302 0,0 km/h
19.11.2018 18:29 0,6 C 90 % 1017,4 hPa 0,0 l/m 0,0 km/h W-NW 302 0,0 km/h
19.11.2018 18:25 0,6 C 90 % 1017,5 hPa 0,0 l/m 0,0 km/h N-NW 348 0,0 km/h
19.11.2018 18:20 0,6 C 90 % 1017,5 hPa 0,0 l/m 0,0 km/h S-SW 210 0,0 km/h
19.11.2018 18:15 0,6 C 90 % 1017,6 hPa 0,0 l/m 0,0 km/h S-SW 210 0,0 km/h
19.11.2018 18:09 0,6 C 90 % 1017,7 hPa 0,0 l/m 0,0 km/h SW 231 0,0 km/h
19.11.2018 18:05 0,6 C 90 % 1017,6 hPa 0,0 l/m 0,0 km/h SW 231 0,0 km/h
19.11.2018 18:00 0,6 C 90 % 1017,5 hPa 0,0 l/m 0,0 km/h SW 231 0,0 km/h
19.11.2018 17:59 0,6 C 90 % 1017,5 hPa 0,0 l/m 0,0 km/h SW 231 0,0 km/h
19.11.2018 17:55 0,6 C 90 % 1017,5 hPa 0,0 l/m 0,0 km/h SW 231 0,0 km/h
19.11.2018 17:54 0,6 C 90 % 1017,5 hPa 0,0 l/m 0,0 km/h SW 231 0,0 km/h
19.11.2018 17:50 0,6 C 90 % 1017,6 hPa 0,0 l/m 0,0 km/h S-SW 201 0,0 km/h
19.11.2018 17:45 0,6 C 90 % 1017,6 hPa 0,0 l/m 0,0 km/h SW 230 0,0 km/h
19.11.2018 17:40 0,6 C 90 % 1017,6 hPa 0,0 l/m 0,0 km/h S-SW 201 0,0 km/h
19.11.2018 17:34 0,6 C 90 % 1017,5 hPa 0,0 l/m 0,0 km/h S-SW 210 0,0 km/h
19.11.2018 17:30 0,6 C 90 % 1017,5 hPa 0,0 l/m 0,0 km/h SW 217 0,0 km/h
19.11.2018 17:25 0,6 C 90 % 1017,4 hPa 0,0 l/m 0,0 km/h SW 223 0,0 km/h
19.11.2018 17:20 0,6 C 90 % 1017,3 hPa 0,0 l/m 0,0 km/h SW 217 0,0 km/h
19.11.2018 17:15 0,6 C 90 % 1017,3 hPa 0,0 l/m 0,0 km/h S-SW 211 0,0 km/h
19.11.2018 17:10 0,7 C 90 % 1017,4 hPa 0,0 l/m 0,0 km/h S-SW 210 0,0 km/h
19.11.2018 17:05 0,6 C 90 % 1017,4 hPa 0,0 l/m 0,0 km/h S-SW 210 0,0 km/h
19.11.2018 17:00 0,7 C 90 % 1017,5 hPa 0,0 l/m 0,0 km/h S-SW 210 0,0 km/h
19.11.2018 16:55 0,7 C 90 % 1017,4 hPa 0,0 l/m 0,0 km/h S-SW 210 0,0 km/h
19.11.2018 16:50 0,7 C 90 % 1017,4 hPa 0,0 l/m 0,0 km/h S-SW 210 0,0 km/h
19.11.2018 16:45 0,7 C 90 % 1017,3 hPa 0,0 l/m 0,0 km/h S-SW 210 0,0 km/h
19.11.2018 16:40 0,7 C 90 % 1017,3 hPa 0,0 l/m 0,0 km/h S-SW 210 0,0 km/h
_ Min-Zeit 21:00 00:00 05:10 - 00:00 - - 00:00
Minimum _ 0,4 C 89 % 1015,3 hPa - 0,0 km/h - - 0,0 km/h
_ Max-Zeit 11:10 06:40 21:29 00:05 22:39 - - 22:39
Maximum _ 1,3 C 91 % 1018,6 hPa 0,4 l/m 0,2 km/h
N
- - 9,7 km/h
N
Durchschnitt _ 0,7 C 90 % 1016,8 hPa #2,8 l/m 0,0 km/h N - 0,1 km/h